CEB981 RPLL-RPMD
Flight info
| Callsign | CEB981 |
|---|---|
| Flight time | N/A |
| Altitude | 35000 |
| Route | IPATA2R IPATA B462 MASBA W9A BN W9 RIMAR RIMAR2P |
| Aircraft | A320/M-SDE3FGHIRWY/LB1 |
Departure
| Time | 2026-05-06 12:12 |
|---|---|
| Airport | Ninoy Aquino International Airport (RPLL) |
Arrival
| Time | N/A |
|---|---|
| Airport | Francisco Bangoy International Airport (RPMD) |
| Time | Latitude | Longitude | Altitude | Speed | Heading |
|---|---|---|---|---|---|
| 2026-05-06 11:37 | 14.52496 | 121.00220 | 61 ft | 0 kts | 255° |
| 2026-05-06 11:48 | 14.52496 | 121.00221 | 69 ft | 0 kts | 255° |
| 2026-05-06 11:59 | 14.52497 | 121.00228 | 60 ft | 4 kts | 253° |
| 2026-05-06 11:59 | 14.52505 | 121.00248 | 69 ft | 4 kts | 181° |
| 2026-05-06 11:59 | 14.52497 | 121.00263 | 69 ft | 1 kts | 116° |
| 2026-05-06 12:01 | 14.52493 | 121.00272 | 69 ft | 4 kts | 118° |
| 2026-05-06 12:01 | 14.52458 | 121.00310 | 66 ft | 10 kts | 136° |
| 2026-05-06 12:02 | 14.52390 | 121.00377 | 65 ft | 17 kts | 137° |
| 2026-05-06 12:02 | 14.52292 | 121.00473 | 68 ft | 22 kts | 134° |
| 2026-05-06 12:02 | 14.52179 | 121.00590 | 67 ft | 24 kts | 134° |
| 2026-05-06 12:02 | 14.52065 | 121.00714 | 65 ft | 24 kts | 133° |
| 2026-05-06 12:03 | 14.51955 | 121.00838 | 62 ft | 24 kts | 134° |
| 2026-05-06 12:03 | 14.51831 | 121.00950 | 66 ft | 24 kts | 138° |
| 2026-05-06 12:03 | 14.51715 | 121.01067 | 67 ft | 23 kts | 134° |
| 2026-05-06 12:03 | 14.51603 | 121.01187 | 63 ft | 23 kts | 133° |
| 2026-05-06 12:04 | 14.51494 | 121.01303 | 65 ft | 22 kts | 134° |
| 2026-05-06 12:04 | 14.51384 | 121.01417 | 65 ft | 22 kts | 134° |
| 2026-05-06 12:04 | 14.51280 | 121.01527 | 66 ft | 21 kts | 135° |
| 2026-05-06 12:04 | 14.51174 | 121.01634 | 67 ft | 21 kts | 135° |
| 2026-05-06 12:05 | 14.51075 | 121.01739 | 63 ft | 18 kts | 134° |
| 2026-05-06 12:05 | 14.51013 | 121.01803 | 62 ft | 7 kts | 134° |
| 2026-05-06 12:05 | 14.50968 | 121.01831 | 62 ft | 10 kts | 178° |
| 2026-05-06 12:05 | 14.50909 | 121.01753 | 68 ft | 17 kts | 241° |
| 2026-05-06 12:06 | 14.50852 | 121.01647 | 64 ft | 16 kts | 239° |
| 2026-05-06 12:06 | 14.50797 | 121.01551 | 62 ft | 15 kts | 240° |
| 2026-05-06 12:06 | 14.50749 | 121.01465 | 62 ft | 13 kts | 240° |
| 2026-05-06 12:06 | 14.50705 | 121.01386 | 69 ft | 13 kts | 240° |
| 2026-05-06 12:07 | 14.50655 | 121.01295 | 60 ft | 16 kts | 241° |
| 2026-05-06 12:07 | 14.50597 | 121.01191 | 66 ft | 17 kts | 239° |
| 2026-05-06 12:07 | 14.50536 | 121.01082 | 62 ft | 17 kts | 240° |
| 2026-05-06 12:07 | 14.50476 | 121.00975 | 62 ft | 17 kts | 240° |
| 2026-05-06 12:08 | 14.50418 | 121.00870 | 63 ft | 17 kts | 240° |
| 2026-05-06 12:08 | 14.50362 | 121.00768 | 62 ft | 16 kts | 240° |
| 2026-05-06 12:08 | 14.50310 | 121.00674 | 59 ft | 14 kts | 240° |
| 2026-05-06 12:08 | 14.50265 | 121.00592 | 63 ft | 12 kts | 240° |
| 2026-05-06 12:09 | 14.50212 | 121.00495 | 68 ft | 21 kts | 241° |
| 2026-05-06 12:09 | 14.50135 | 121.00359 | 61 ft | 22 kts | 240° |
| 2026-05-06 12:09 | 14.50063 | 121.00232 | 61 ft | 20 kts | 240° |
| 2026-05-06 12:09 | 14.49994 | 121.00110 | 69 ft | 18 kts | 238° |
| 2026-05-06 12:10 | 14.49942 | 121.00017 | 69 ft | 9 kts | 240° |
| 2026-05-06 12:10 | 14.49908 | 120.99965 | 69 ft | 9 kts | 219° |
| 2026-05-06 12:10 | 14.49858 | 120.99973 | 69 ft | 7 kts | 148° |
| 2026-05-06 12:10 | 14.49824 | 120.99995 | 69 ft | 6 kts | 148° |
| 2026-05-06 12:11 | 14.49811 | 121.00060 | 69 ft | 16 kts | 58° |
| 2026-05-06 12:11 | 14.49952 | 121.00305 | 60 ft | 73 kts | 62° |
| 2026-05-06 12:11 | 14.50307 | 121.00951 | 69 ft | 132 kts | 60° |
| 2026-05-06 12:11 | 14.50852 | 121.01914 | 103 ft | 174 kts | 59° |
| 2026-05-06 12:12 | 14.51452 | 121.02964 | 784 ft | 168 kts | 62° |
| 2026-05-06 12:12 | 14.52053 | 121.03997 | 1471 ft | 168 kts | 61° |
| 2026-05-06 12:12 | 14.52683 | 121.05015 | 2114 ft | 168 kts | 59° |
| 2026-05-06 12:12 | 14.53312 | 121.06037 | 2675 ft | 169 kts | 59° |
| 2026-05-06 12:13 | 14.53929 | 121.07069 | 3221 ft | 169 kts | 59° |
| 2026-05-06 12:13 | 14.54566 | 121.08174 | 3468 ft | 190 kts | 60° |
| 2026-05-06 12:13 | 14.55281 | 121.09429 | 3560 ft | 216 kts | 60° |
| 2026-05-06 12:13 | 14.56078 | 121.10832 | 3609 ft | 242 kts | 60° |
| 2026-05-06 12:14 | 14.56968 | 121.12401 | 3989 ft | 261 kts | 60° |
| 2026-05-06 12:14 | 14.57895 | 121.14032 | 4713 ft | 266 kts | 60° |
| 2026-05-06 12:14 | 14.58846 | 121.15696 | 5474 ft | 270 kts | 60° |
| 2026-05-06 12:14 | 14.59813 | 121.17377 | 6212 ft | 275 kts | 60° |
| 2026-05-06 12:15 | 14.60801 | 121.19085 | 6952 ft | 278 kts | 60° |
| 2026-05-06 12:15 | 14.61786 | 121.20786 | 7664 ft | 281 kts | 60° |
| 2026-05-06 12:15 | 14.62792 | 121.22534 | 8349 ft | 286 kts | 60° |
| 2026-05-06 12:15 | 14.63576 | 121.24421 | 9009 ft | 289 kts | 78° |
| 2026-05-06 12:16 | 14.63620 | 121.26493 | 9644 ft | 292 kts | 101° |
| 2026-05-06 12:16 | 14.62841 | 121.28430 | 10290 ft | 297 kts | 124° |
| 2026-05-06 12:16 | 14.61325 | 121.29965 | 10509 ft | 318 kts | 144° |
| 2026-05-06 12:16 | 14.59418 | 121.31284 | 10641 ft | 341 kts | 145° |
| 2026-05-06 12:17 | 14.57401 | 121.32658 | 11014 ft | 352 kts | 146° |
| 2026-05-06 12:17 | 14.55345 | 121.34054 | 11591 ft | 356 kts | 146° |
| 2026-05-06 12:17 | 14.53265 | 121.35468 | 12196 ft | 360 kts | 145° |
| 2026-05-06 12:17 | 14.51170 | 121.36903 | 12780 ft | 363 kts | 145° |
| 2026-05-06 12:18 | 14.49064 | 121.38353 | 13373 ft | 366 kts | 145° |
| 2026-05-06 12:18 | 14.46933 | 121.39826 | 13953 ft | 369 kts | 145° |
| 2026-05-06 12:18 | 14.44794 | 121.41304 | 14523 ft | 372 kts | 145° |
| 2026-05-06 12:18 | 14.42634 | 121.42797 | 15072 ft | 375 kts | 145° |
| 2026-05-06 12:19 | 14.40461 | 121.44304 | 15608 ft | 377 kts | 144° |
| 2026-05-06 12:19 | 14.38489 | 121.46087 | 16122 ft | 379 kts | 133° |
| 2026-05-06 12:19 | 14.36662 | 121.48060 | 16624 ft | 381 kts | 133° |
| 2026-05-06 12:19 | 14.34833 | 121.50050 | 17134 ft | 384 kts | 133° |
| 2026-05-06 12:20 | 14.32993 | 121.52063 | 17634 ft | 386 kts | 132° |
| 2026-05-06 12:20 | 14.31145 | 121.54086 | 18114 ft | 389 kts | 132° |
| 2026-05-06 12:20 | 14.29281 | 121.56123 | 18583 ft | 392 kts | 133° |
| 2026-05-06 12:20 | 14.27404 | 121.58168 | 19035 ft | 394 kts | 133° |
| 2026-05-06 12:21 | 14.25510 | 121.60233 | 19473 ft | 398 kts | 133° |
| 2026-05-06 12:21 | 14.23605 | 121.62308 | 19913 ft | 401 kts | 133° |
| 2026-05-06 12:21 | 14.21683 | 121.64402 | 20344 ft | 404 kts | 133° |
| 2026-05-06 12:21 | 14.19771 | 121.66482 | 20764 ft | 406 kts | 133° |
| 2026-05-06 12:22 | 14.17819 | 121.68605 | 21169 ft | 409 kts | 133° |
| 2026-05-06 12:22 | 14.15852 | 121.70742 | 21587 ft | 412 kts | 133° |
| 2026-05-06 12:22 | 14.13869 | 121.72894 | 21994 ft | 415 kts | 133° |
| 2026-05-06 12:22 | 14.11874 | 121.75061 | 22383 ft | 418 kts | 133° |
| 2026-05-06 12:23 | 14.09868 | 121.77241 | 22751 ft | 421 kts | 133° |
| 2026-05-06 12:23 | 14.07854 | 121.79430 | 23114 ft | 423 kts | 133° |
| 2026-05-06 12:23 | 14.05821 | 121.81637 | 23461 ft | 426 kts | 133° |
| 2026-05-06 12:23 | 14.03775 | 121.83858 | 23788 ft | 429 kts | 133° |
| 2026-05-06 12:24 | 14.01716 | 121.86091 | 24123 ft | 431 kts | 133° |
| 2026-05-06 12:24 | 13.99650 | 121.88338 | 24449 ft | 433 kts | 133° |
| 2026-05-06 12:24 | 13.97574 | 121.90595 | 24765 ft | 435 kts | 133° |
| 2026-05-06 12:24 | 13.95481 | 121.92868 | 25075 ft | 437 kts | 133° |
| 2026-05-06 12:25 | 13.93383 | 121.95147 | 25381 ft | 439 kts | 133° |
| 2026-05-06 12:25 | 13.91281 | 121.97432 | 25674 ft | 441 kts | 133° |
| 2026-05-06 12:25 | 13.89158 | 121.99735 | 25968 ft | 443 kts | 133° |
| 2026-05-06 12:25 | 13.87025 | 122.02039 | 26253 ft | 445 kts | 133° |
| 2026-05-06 12:26 | 13.84885 | 122.04351 | 26527 ft | 447 kts | 133° |
| 2026-05-06 12:26 | 13.82738 | 122.06674 | 26789 ft | 449 kts | 133° |
| 2026-05-06 12:26 | 13.80584 | 122.09001 | 27052 ft | 451 kts | 133° |
| 2026-05-06 12:26 | 13.78417 | 122.11347 | 27312 ft | 452 kts | 133° |
| 2026-05-06 12:27 | 13.76246 | 122.13701 | 27572 ft | 454 kts | 133° |
| 2026-05-06 12:27 | 13.74064 | 122.16062 | 27812 ft | 456 kts | 134° |
| 2026-05-06 12:27 | 13.71871 | 122.18430 | 28056 ft | 458 kts | 134° |
| 2026-05-06 12:27 | 13.69694 | 122.20778 | 28303 ft | 459 kts | 134° |
| 2026-05-06 12:28 | 13.67487 | 122.23155 | 28522 ft | 461 kts | 134° |
| 2026-05-06 12:28 | 13.65265 | 122.25546 | 28753 ft | 463 kts | 134° |
| 2026-05-06 12:28 | 13.63039 | 122.27945 | 28987 ft | 464 kts | 134° |
| 2026-05-06 12:28 | 13.60775 | 122.30383 | 29193 ft | 466 kts | 134° |
| 2026-05-06 12:29 | 13.58567 | 122.32768 | 29397 ft | 467 kts | 134° |
| 2026-05-06 12:29 | 13.56292 | 122.35224 | 29597 ft | 469 kts | 134° |
| 2026-05-06 12:29 | 13.54076 | 122.37622 | 29792 ft | 470 kts | 134° |
| 2026-05-06 12:29 | 13.51818 | 122.40064 | 29983 ft | 472 kts | 134° |
| 2026-05-06 12:30 | 13.49551 | 122.42513 | 30170 ft | 473 kts | 134° |
| 2026-05-06 12:30 | 13.47280 | 122.44962 | 30355 ft | 474 kts | 134° |
| 2026-05-06 12:30 | 13.44994 | 122.47423 | 30538 ft | 476 kts | 134° |
| 2026-05-06 12:30 | 13.42712 | 122.49881 | 30744 ft | 476 kts | 134° |
| 2026-05-06 12:31 | 13.40427 | 122.52341 | 31012 ft | 475 kts | 134° |
| 2026-05-06 12:31 | 13.38151 | 122.54788 | 31273 ft | 474 kts | 134° |
| 2026-05-06 12:31 | 13.35876 | 122.57232 | 31536 ft | 473 kts | 134° |
| 2026-05-06 12:31 | 13.33606 | 122.59672 | 31795 ft | 472 kts | 134° |
| 2026-05-06 12:32 | 13.31340 | 122.62109 | 32062 ft | 471 kts | 134° |
| 2026-05-06 12:32 | 13.29081 | 122.64541 | 32322 ft | 470 kts | 135° |
| 2026-05-06 12:32 | 13.26822 | 122.66972 | 32576 ft | 469 kts | 135° |
| 2026-05-06 12:32 | 13.24576 | 122.69389 | 32815 ft | 468 kts | 135° |
| 2026-05-06 12:33 | 13.22328 | 122.71806 | 33059 ft | 468 kts | 135° |
| 2026-05-06 12:33 | 13.20083 | 122.74218 | 33301 ft | 467 kts | 135° |
| 2026-05-06 12:33 | 13.17834 | 122.76629 | 33546 ft | 466 kts | 135° |
| 2026-05-06 12:33 | 13.15598 | 122.79024 | 33790 ft | 465 kts | 135° |
| 2026-05-06 12:34 | 13.13363 | 122.81421 | 34027 ft | 464 kts | 135° |
| 2026-05-06 12:34 | 13.11163 | 122.83784 | 34273 ft | 463 kts | 135° |
| 2026-05-06 12:34 | 13.08936 | 122.86172 | 34502 ft | 463 kts | 135° |
| 2026-05-06 12:34 | 13.06713 | 122.88555 | 34731 ft | 462 kts | 135° |
| 2026-05-06 12:35 | 13.04492 | 122.90936 | 34883 ft | 462 kts | 135° |
| 2026-05-06 12:35 | 13.02277 | 122.93308 | 34918 ft | 459 kts | 135° |
| 2026-05-06 12:35 | 12.97870 | 122.98024 | 34915 ft | 458 kts | 135° |
| 2026-05-06 12:36 | 12.93468 | 123.02741 | 34915 ft | 457 kts | 135° |
| 2026-05-06 12:36 | 12.89065 | 123.07450 | 34915 ft | 458 kts | 135° |
| 2026-05-06 12:37 | 12.84658 | 123.12158 | 34914 ft | 457 kts | 135° |
| 2026-05-06 12:37 | 12.80255 | 123.16868 | 34912 ft | 457 kts | 135° |
| 2026-05-06 12:38 | 12.75859 | 123.21574 | 34911 ft | 457 kts | 135° |
| 2026-05-06 12:38 | 12.71455 | 123.26280 | 34910 ft | 457 kts | 135° |
| 2026-05-06 12:39 | 12.67048 | 123.30977 | 34909 ft | 457 kts | 135° |
| 2026-05-06 12:39 | 12.62640 | 123.35675 | 34909 ft | 457 kts | 135° |
| 2026-05-06 12:40 | 12.58236 | 123.40368 | 34910 ft | 457 kts | 135° |
| 2026-05-06 12:40 | 12.53826 | 123.45063 | 34913 ft | 457 kts | 135° |
| 2026-05-06 12:41 | 12.49445 | 123.49727 | 34915 ft | 457 kts | 135° |
| 2026-05-06 12:41 | 12.45033 | 123.54420 | 34916 ft | 457 kts | 135° |
| 2026-05-06 12:42 | 12.40621 | 123.59109 | 34916 ft | 457 kts | 135° |
| 2026-05-06 12:42 | 12.35935 | 123.63466 | 34915 ft | 455 kts | 147° |
| 2026-05-06 12:43 | 12.30419 | 123.66628 | 34916 ft | 454 kts | 153° |
| 2026-05-06 12:43 | 12.25794 | 123.69182 | 34917 ft | 455 kts | 152° |
| 2026-05-06 12:44 | 12.20197 | 123.72279 | 34919 ft | 455 kts | 152° |
| 2026-05-06 12:44 | 12.14630 | 123.75353 | 34920 ft | 455 kts | 152° |
| 2026-05-06 12:45 | 12.09059 | 123.78421 | 34920 ft | 455 kts | 152° |
| 2026-05-06 12:46 | 12.00716 | 123.83022 | 34914 ft | 454 kts | 152° |
| 2026-05-06 12:46 | 11.95149 | 123.86084 | 34909 ft | 454 kts | 152° |
| 2026-05-06 12:47 | 11.89585 | 123.89140 | 34908 ft | 454 kts | 152° |
| 2026-05-06 12:47 | 11.84058 | 123.92184 | 34907 ft | 454 kts | 152° |
| 2026-05-06 12:48 | 11.78493 | 123.95252 | 34906 ft | 454 kts | 152° |
| 2026-05-06 12:48 | 11.72929 | 123.98314 | 34908 ft | 455 kts | 152° |
| 2026-05-06 12:49 | 11.67355 | 124.01369 | 34908 ft | 455 kts | 152° |
| 2026-05-06 12:49 | 11.61783 | 124.04428 | 34908 ft | 455 kts | 152° |
| 2026-05-06 12:50 | 11.56214 | 124.07490 | 34911 ft | 455 kts | 152° |
| 2026-05-06 12:50 | 11.50645 | 124.10551 | 34911 ft | 455 kts | 152° |
| 2026-05-06 12:51 | 11.45068 | 124.13607 | 34910 ft | 455 kts | 152° |
| 2026-05-06 12:51 | 11.39492 | 124.16651 | 34905 ft | 455 kts | 152° |
| 2026-05-06 12:52 | 11.33918 | 124.19701 | 34905 ft | 455 kts | 152° |
| 2026-05-06 12:52 | 11.28339 | 124.22760 | 34906 ft | 455 kts | 152° |
| 2026-05-06 12:53 | 11.22762 | 124.25817 | 34906 ft | 455 kts | 152° |
| 2026-05-06 12:53 | 11.17185 | 124.28873 | 34907 ft | 455 kts | 152° |
| 2026-05-06 12:54 | 11.11599 | 124.31923 | 34909 ft | 455 kts | 152° |
| 2026-05-06 12:54 | 11.06015 | 124.34968 | 34910 ft | 456 kts | 152° |
| 2026-05-06 12:55 | 11.00411 | 124.37998 | 34911 ft | 456 kts | 152° |
| 2026-05-06 12:55 | 10.94801 | 124.41012 | 34912 ft | 456 kts | 152° |
| 2026-05-06 12:56 | 10.89188 | 124.44026 | 34913 ft | 456 kts | 152° |
| 2026-05-06 12:56 | 10.83612 | 124.47021 | 34912 ft | 456 kts | 152° |
| 2026-05-06 12:57 | 10.78010 | 124.50043 | 34910 ft | 456 kts | 152° |
| 2026-05-06 12:57 | 10.72406 | 124.53074 | 34912 ft | 456 kts | 152° |
| 2026-05-06 12:58 | 10.66817 | 124.56114 | 34910 ft | 455 kts | 152° |
| 2026-05-06 12:58 | 10.61241 | 124.59143 | 34907 ft | 455 kts | 152° |
| 2026-05-06 12:59 | 10.55651 | 124.62175 | 34905 ft | 455 kts | 152° |
| 2026-05-06 12:59 | 10.50067 | 124.65204 | 34905 ft | 455 kts | 152° |
| 2026-05-06 13:00 | 10.44485 | 124.68230 | 34902 ft | 454 kts | 152° |
| 2026-05-06 13:00 | 10.38907 | 124.71254 | 34901 ft | 454 kts | 152° |
| 2026-05-06 13:01 | 10.33341 | 124.74271 | 34895 ft | 454 kts | 152° |
| 2026-05-06 13:01 | 10.27803 | 124.77274 | 34892 ft | 454 kts | 152° |
| 2026-05-06 13:02 | 10.22232 | 124.80289 | 34890 ft | 454 kts | 152° |
| 2026-05-06 13:02 | 10.16662 | 124.83307 | 34896 ft | 454 kts | 152° |
| 2026-05-06 13:03 | 10.11086 | 124.86327 | 34901 ft | 454 kts | 152° |
| 2026-05-06 13:03 | 10.05511 | 124.89338 | 34905 ft | 454 kts | 152° |
| 2026-05-06 13:04 | 9.99933 | 124.92345 | 34909 ft | 454 kts | 152° |
| 2026-05-06 13:04 | 9.94361 | 124.95353 | 34912 ft | 453 kts | 152° |
| 2026-05-06 13:05 | 9.88788 | 124.98362 | 34910 ft | 454 kts | 152° |
| 2026-05-06 13:05 | 9.83209 | 125.01373 | 34914 ft | 454 kts | 151° |
| 2026-05-06 13:06 | 9.77637 | 125.04383 | 34915 ft | 454 kts | 151° |
| 2026-05-06 13:06 | 9.72057 | 125.07389 | 34915 ft | 454 kts | 151° |